Time;durP1;ratioP1;P1;durP2;ratioP2;P2;SDS_P1;SDS_P2;PMS_P1;PMS_P2;Temp;Humidity;BMP_temperature;BMP_pressure;BME280_temperature;BME280_humidity;BME280_pressure;Samples;Min_cycle;Max_cycle;Signal;HPM_P1;HPM_P2
2023/04/07 00:01:14;;;;;;;25.25;15.50;;;;;;;;;;4673799;28;9999604;-70
2023/04/07 00:03:40;;;;;;;19.83;14.75;;;;;;;;;;5019793;28;20120;-69
2023/04/07 00:06:06;;;;;;;21.77;14.40;;;;;;;;;;5012051;28;20117;-70
2023/04/07 00:08:32;;;;;;;23.60;15.88;;;;;;;;;;5016256;28;20156;-70
2023/04/07 00:10:58;;;;;;;26.42;16.00;;;;;;;;;;5018006;28;20109;-70
2023/04/07 00:13:25;;;;;;;21.83;15.10;;;;;;;;;;5012912;28;20504;-70
2023/04/07 00:15:51;;;;;;;21.92;15.55;;;;;;;;;;5013975;28;20029;-70
2023/04/07 00:18:17;;;;;;;21.58;15.50;;;;;;;;;;5016647;28;20041;-70
2023/04/07 00:20:43;;;;;;;23.70;16.05;;;;;;;;;;5020745;28;20037;-70
2023/04/07 00:23:09;;;;;;;24.63;15.98;;;;;;;;;;5014728;28;20633;-69
2023/04/07 00:25:35;;;;;;;23.00;15.65;;;;;;;;;;5012149;28;20050;-70
2023/04/07 00:28:01;;;;;;;23.13;15.98;;;;;;;;;;5019586;28;20120;-70
2023/04/07 00:30:27;;;;;;;24.42;15.27;;;;;;;;;;5016118;28;20594;-69
2023/04/07 00:32:53;;;;;;;23.33;15.90;;;;;;;;;;5016105;28;20101;-69
2023/04/07 00:35:19;;;;;;;22.27;15.50;;;;;;;;;;5021433;28;20021;-69
2023/04/07 00:37:45;;;;;;;23.35;15.50;;;;;;;;;;5012721;28;20513;-69
2023/04/07 00:40:11;;;;;;;23.02;16.27;;;;;;;;;;5012794;28;20034;-69
2023/04/07 00:42:37;;;;;;;24.67;16.23;;;;;;;;;;5018842;28;20029;-69
2023/04/07 00:45:03;;;;;;;25.42;16.15;;;;;;;;;;5011608;28;20033;-69
2023/04/07 00:47:29;;;;;;;23.90;16.08;;;;;;;;;;5013380;28;20061;-69
2023/04/07 00:49:55;;;;;;;24.40;16.13;;;;;;;;;;5020476;28;20033;-69
2023/04/07 00:52:27;;;;;;;23.40;15.60;;;;;;;;;;5028288;28;20460;-69
2023/04/07 00:54:54;;;;;;;22.10;15.30;;;;;;;;;;5011067;28;20056;-70
2023/04/07 00:57:21;;;;;;;23.58;15.50;;;;;;;;;;5021759;28;20032;-70
2023/04/07 00:59:48;;;;;;;21.58;14.60;;;;;;;;;;5011572;28;20038;-70
2023/04/07 01:02:17;;;;;;;23.15;15.30;;;;;;;;;;5015963;28;20029;-70
2023/04/07 01:04:51;;;;;;;20.90;15.25;;;;;;;;;;5014554;28;20037;-69
2023/04/07 01:07:25;;;;;;;20.77;15.50;;;;;;;;;;5012613;28;20058;-70
2023/04/07 01:09:59;;;;;;;22.33;14.93;;;;;;;;;;5013564;28;20028;-69
2023/04/07 01:12:38;;;;;;;19.98;14.48;;;;;;;;;;5021920;28;20307;-70
2023/04/07 01:15:09;;;;;;;18.98;14.35;;;;;;;;;;5019191;28;20034;-69
2023/04/07 01:17:36;;;;;;;19.45;13.50;;;;;;;;;;5014369;28;20085;-69
2023/04/07 01:20:06;;;;;;;18.63;12.68;;;;;;;;;;5013803;28;20030;-70
2023/04/07 01:22:34;;;;;;;18.85;13.40;;;;;;;;;;5017635;28;20033;-69
2023/04/07 01:25:06;;;;;;;17.48;12.57;;;;;;;;;;5014242;28;20045;-69
2023/04/07 01:27:31;;;;;;;18.08;12.50;;;;;;;;;;5015186;28;20052;-69
2023/04/07 01:30:00;;;;;;;16.52;11.70;;;;;;;;;;5017986;28;20483;-69
2023/04/07 01:32:27;;;;;;;18.02;11.85;;;;;;;;;;5017504;28;20029;-69
2023/04/07 01:34:53;;;;;;;15.80;11.48;;;;;;;;;;5020765;28;20022;-69
2023/04/07 01:37:20;;;;;;;14.98;10.63;;;;;;;;;;5016794;28;20026;-69
2023/04/07 01:39:46;;;;;;;14.63;11.07;;;;;;;;;;5010249;28;20026;-69
2023/04/07 01:42:12;;;;;;;13.50;10.18;;;;;;;;;;5016637;28;20201;-69
2023/04/07 01:44:38;;;;;;;14.63;10.40;;;;;;;;;;5018385;28;20029;-69
2023/04/07 01:47:05;;;;;;;17.20;10.80;;;;;;;;;;5016632;28;20029;-70
2023/04/07 01:49:31;;;;;;;16.02;11.00;;;;;;;;;;5013835;28;20057;-70
2023/04/07 01:51:57;;;;;;;14.98;10.80;;;;;;;;;;5018765;28;20116;-70
2023/04/07 01:54:23;;;;;;;17.30;10.80;;;;;;;;;;5015390;28;20453;-69
2023/04/07 01:56:49;;;;;;;14.45;10.82;;;;;;;;;;5014772;28;20482;-69
2023/04/07 01:59:15;;;;;;;15.80;10.48;;;;;;;;;;5017213;28;20037;-70
2023/04/07 02:01:41;;;;;;;15.52;10.60;;;;;;;;;;5015315;28;20030;-70
2023/04/07 02:04:07;;;;;;;14.95;10.52;;;;;;;;;;5023847;28;20030;-69
2023/04/07 02:06:54;;;;;;;14.68;10.63;;;;;;;;;;5020431;28;20037;-69
2023/04/07 02:09:20;;;;;;;14.18;10.00;;;;;;;;;;5021153;28;20029;-70
2023/04/07 02:11:48;;;;;;;16.83;11.18;;;;;;;;;;5016242;28;20034;-70
2023/04/07 02:14:16;;;;;;;13.65;9.80;;;;;;;;;;5011226;28;20025;-70
2023/04/07 02:16:42;;;;;;;13.45;9.80;;;;;;;;;;5011766;28;20390;-70
2023/04/07 02:19:08;;;;;;;14.50;10.23;;;;;;;;;;5022476;28;20033;-69
2023/04/07 02:21:35;;;;;;;15.48;10.50;;;;;;;;;;5020716;28;20108;-70
2023/04/07 02:24:02;;;;;;;13.70;10.10;;;;;;;;;;5020659;28;20014;-70
2023/04/07 02:26:28;;;;;;;12.50;9.65;;;;;;;;;;5010041;28;20042;-70
2023/04/07 02:28:54;;;;;;;14.15;9.90;;;;;;;;;;5014557;28;20509;-70
2023/04/07 02:31:20;;;;;;;14.40;9.50;;;;;;;;;;5017252;28;20025;-70
2023/04/07 02:33:46;;;;;;;12.63;9.55;;;;;;;;;;5010828;28;20037;-69
2023/04/07 02:36:12;;;;;;;13.23;9.85;;;;;;;;;;5013563;28;20551;-70
2023/04/07 02:38:38;;;;;;;14.95;9.50;;;;;;;;;;5018852;28;20317;-70
2023/04/07 02:41:05;;;;;;;13.63;9.10;;;;;;;;;;5019606;28;20037;-70
2023/04/07 02:43:31;;;;;;;12.68;9.45;;;;;;;;;;5010116;28;20032;-70
2023/04/07 02:45:57;;;;;;;12.32;9.25;;;;;;;;;;5010699;28;20018;-70
2023/04/07 02:48:23;;;;;;;11.57;8.40;;;;;;;;;;5009612;28;20060;-70
2023/04/07 02:50:49;;;;;;;12.55;8.60;;;;;;;;;;5015978;28;20018;-70
2023/04/07 02:53:15;;;;;;;13.65;8.93;;;;;;;;;;5009954;28;20037;-70
2023/04/07 02:55:41;;;;;;;12.60;9.23;;;;;;;;;;5010587;28;20034;-70
2023/04/07 02:58:07;;;;;;;11.25;8.18;;;;;;;;;;5022107;28;20030;-70
2023/04/07 03:00:33;;;;;;;12.40;8.82;;;;;;;;;;5011883;28;20033;-70
2023/04/07 03:03:00;;;;;;;12.40;8.60;;;;;;;;;;5011981;28;20078;-70
2023/04/07 03:05:26;;;;;;;10.05;7.93;;;;;;;;;;5019627;28;20037;-70
2023/04/07 03:07:52;;;;;;;13.95;8.75;;;;;;;;;;5017008;28;20057;-70
2023/04/07 03:10:18;;;;;;;10.95;8.23;;;;;;;;;;5012854;28;20050;-70
2023/04/07 03:12:44;;;;;;;11.13;7.90;;;;;;;;;;5015172;28;20478;-70
2023/04/07 03:15:10;;;;;;;10.43;8.60;;;;;;;;;;5013853;28;20049;-70
2023/04/07 03:17:36;;;;;;;13.75;8.70;;;;;;;;;;5012428;28;20052;-70
2023/04/07 03:20:02;;;;;;;10.63;8.20;;;;;;;;;;5018293;28;20482;-70
2023/04/07 03:22:28;;;;;;;12.23;9.05;;;;;;;;;;5021272;28;20109;-70
2023/04/07 03:24:55;;;;;;;12.90;9.35;;;;;;;;;;5014021;28;20512;-70
2023/04/07 03:27:21;;;;;;;18.23;9.05;;;;;;;;;;5021525;28;20407;-70
2023/04/07 03:29:47;;;;;;;10.50;8.23;;;;;;;;;;5008728;28;20026;-70
2023/04/07 03:32:13;;;;;;;10.55;8.13;;;;;;;;;;5011398;28;20026;-70
2023/04/07 03:34:39;;;;;;;11.18;8.00;;;;;;;;;;5012814;28;20093;-70
2023/04/07 03:37:05;;;;;;;10.93;8.57;;;;;;;;;;5013346;28;20037;-71
2023/04/07 03:39:31;;;;;;;11.30;8.25;;;;;;;;;;5013182;28;20109;-70
2023/04/07 03:41:57;;;;;;;11.57;8.35;;;;;;;;;;5015083;28;20175;-70
2023/04/07 03:44:23;;;;;;;11.38;8.63;;;;;;;;;;5014949;28;20590;-70
2023/04/07 03:46:49;;;;;;;11.20;8.27;;;;;;;;;;5011542;28;20032;-70
2023/04/07 03:49:15;;;;;;;10.90;8.43;;;;;;;;;;5016828;28;20504;-70
2023/04/07 03:51:41;;;;;;;10.55;8.15;;;;;;;;;;5015354;28;20030;-70
2023/04/07 03:54:07;;;;;;;11.43;8.65;;;;;;;;;;5022150;28;20033;-70
2023/04/07 03:56:33;;;;;;;11.50;8.80;;;;;;;;;;5021863;28;20029;-70
2023/04/07 03:58:59;;;;;;;12.25;8.80;;;;;;;;;;5024902;28;20030;-70
2023/04/07 04:01:25;;;;;;;13.20;9.15;;;;;;;;;;5015201;28;20390;-70
2023/04/07 04:03:51;;;;;;;11.90;8.32;;;;;;;;;;5018278;28;20021;-70
2023/04/07 04:06:17;;;;;;;11.52;8.57;;;;;;;;;;5018041;28;20471;-70
2023/04/07 04:08:43;;;;;;;11.65;8.77;;;;;;;;;;5011833;28;20131;-70
2023/04/07 04:11:09;;;;;;;12.35;8.70;;;;;;;;;;5014607;28;20073;-70
2023/04/07 04:13:35;;;;;;;12.80;9.05;;;;;;;;;;5013285;28;20036;-70
2023/04/07 04:16:01;;;;;;;13.15;9.05;;;;;;;;;;5011644;28;20573;-70
2023/04/07 04:18:27;;;;;;;11.18;8.73;;;;;;;;;;5021923;28;20036;-70
2023/04/07 04:20:53;;;;;;;13.20;8.90;;;;;;;;;;5024511;28;20025;-70
2023/04/07 04:23:19;;;;;;;12.13;9.07;;;;;;;;;;5013553;28;20092;-70
2023/04/07 04:25:45;;;;;;;13.98;9.23;;;;;;;;;;5012399;28;20049;-70
2023/04/07 04:28:11;;;;;;;14.05;9.38;;;;;;;;;;5014061;28;20033;-70
2023/04/07 04:30:37;;;;;;;14.25;9.85;;;;;;;;;;5015643;28;20553;-70
2023/04/07 04:33:03;;;;;;;12.85;9.57;;;;;;;;;;5019860;28;20091;-70
2023/04/07 04:35:29;;;;;;;14.73;9.43;;;;;;;;;;5014054;28;20568;-70
2023/04/07 04:37:55;;;;;;;13.40;9.40;;;;;;;;;;5005347;28;20629;-70
2023/04/07 04:40:21;;;;;;;12.77;9.35;;;;;;;;;;5005754;28;20038;-70
2023/04/07 04:42:47;;;;;;;12.75;9.63;;;;;;;;;;5015018;28;20107;-70
2023/04/07 04:45:13;;;;;;;15.00;10.13;;;;;;;;;;5011663;28;20038;-70
2023/04/07 04:47:40;;;;;;;11.25;8.80;;;;;;;;;;5014044;28;20026;-70
2023/04/07 04:50:06;;;;;;;13.48;9.60;;;;;;;;;;5009634;28;20057;-70
2023/04/07 04:52:33;;;;;;;12.90;9.55;;;;;;;;;;5008618;28;20033;-70
2023/04/07 04:54:59;;;;;;;12.60;9.50;;;;;;;;;;5009925;28;20030;-70
2023/04/07 04:57:25;;;;;;;11.57;9.05;;;;;;;;;;5009219;28;20060;-70
2023/04/07 04:59:51;;;;;;;12.55;9.10;;;;;;;;;;5018409;28;20467;-70
2023/04/07 05:02:17;;;;;;;14.15;9.30;;;;;;;;;;5018040;28;20087;-70
2023/04/07 05:04:43;;;;;;;13.45;9.93;;;;;;;;;;5012951;28;20651;-70
2023/04/07 05:07:09;;;;;;;14.60;10.43;;;;;;;;;;5007913;28;20030;-69
2023/04/07 05:09:35;;;;;;;12.68;9.32;;;;;;;;;;5006932;28;20056;-70
2023/04/07 05:12:01;;;;;;;12.93;9.55;;;;;;;;;;5007457;28;20345;-70
2023/04/07 05:14:27;;;;;;;14.38;10.00;;;;;;;;;;5014707;28;20021;-70
2023/04/07 05:16:53;;;;;;;13.90;10.15;;;;;;;;;;5012237;28;20057;-70
2023/04/07 05:19:20;;;;;;;12.50;9.32;;;;;;;;;;5016491;28;20017;-70
2023/04/07 05:21:46;;;;;;;15.10;10.00;;;;;;;;;;5016047;28;20021;-70
2023/04/07 05:24:12;;;;;;;17.33;10.40;;;;;;;;;;5024994;28;20033;-70
2023/04/07 05:26:38;;;;;;;12.43;9.70;;;;;;;;;;5015035;28;20061;-70
2023/04/07 05:29:04;;;;;;;14.40;9.85;;;;;;;;;;5015097;28;20054;-70
2023/04/07 05:31:30;;;;;;;11.65;9.32;;;;;;;;;;5009875;28;20022;-70
2023/04/07 05:33:56;;;;;;;13.35;9.52;;;;;;;;;;5015760;28;20067;-70
2023/04/07 05:36:22;;;;;;;12.60;10.10;;;;;;;;;;5013195;28;20125;-70
2023/04/07 05:38:48;;;;;;;13.15;9.93;;;;;;;;;;5017485;28;20044;-70
2023/04/07 05:41:14;;;;;;;16.85;10.13;;;;;;;;;;5014686;28;20033;-69
2023/04/07 05:43:40;;;;;;;14.38;9.57;;;;;;;;;;5011526;28;20080;-70
2023/04/07 05:46:06;;;;;;;14.98;10.43;;;;;;;;;;5015727;28;20037;-70
2023/04/07 05:48:32;;;;;;;13.60;9.85;;;;;;;;;;5009697;28;20030;-70
2023/04/07 05:50:58;;;;;;;15.45;10.60;;;;;;;;;;5011425;28;20033;-70
2023/04/07 05:53:24;;;;;;;15.63;10.70;;;;;;;;;;5014935;28;20495;-70
2023/04/07 05:55:50;;;;;;;14.25;9.90;;;;;;;;;;5010594;28;20026;-70
2023/04/07 05:58:16;;;;;;;13.07;9.13;;;;;;;;;;5010557;28;20450;-70
2023/04/07 06:00:42;;;;;;;10.85;8.70;;;;;;;;;;5020625;28;20100;-70
2023/04/07 06:03:08;;;;;;;15.82;9.27;;;;;;;;;;5020960;28;20474;-70
2023/04/07 06:05:34;;;;;;;12.35;9.27;;;;;;;;;;5012445;28;20034;-70
2023/04/07 06:08:00;;;;;;;12.15;9.00;;;;;;;;;;5016436;28;20029;-70
2023/04/07 06:10:26;;;;;;;12.27;9.05;;;;;;;;;;5010623;28;20022;-70
2023/04/07 06:12:52;;;;;;;11.40;8.60;;;;;;;;;;5010642;28;20025;-70
2023/04/07 06:15:18;;;;;;;11.32;8.85;;;;;;;;;;5017159;28;20037;-70
2023/04/07 06:17:44;;;;;;;13.02;8.18;;;;;;;;;;5016679;28;20143;-70
2023/04/07 06:20:11;;;;;;;12.63;7.88;;;;;;;;;;5016049;28;20029;-70
2023/04/07 06:22:37;;;;;;;10.13;7.57;;;;;;;;;;5019066;28;20045;-70
2023/04/07 06:25:03;;;;;;;10.68;7.80;;;;;;;;;;5008395;28;20042;-70
2023/04/07 06:27:29;;;;;;;11.43;8.70;;;;;;;;;;5013098;28;20072;-70
2023/04/07 06:29:56;;;;;;;12.15;8.10;;;;;;;;;;5012788;28;20056;-70
2023/04/07 06:32:22;;;;;;;10.63;7.97;;;;;;;;;;5016260;28;20052;-70
2023/04/07 06:34:48;;;;;;;12.05;7.65;;;;;;;;;;5011574;28;20766;-69
2023/04/07 06:37:15;;;;;;;13.30;8.18;;;;;;;;;;5011676;28;20034;-69
2023/04/07 06:39:41;;;;;;;11.07;8.05;;;;;;;;;;5017411;28;20034;-69
2023/04/07 06:42:07;;;;;;;11.68;8.38;;;;;;;;;;5012762;28;20030;-69
2023/04/07 06:44:33;;;;;;;11.90;8.32;;;;;;;;;;5017662;28;20418;-70
2023/04/07 06:46:59;;;;;;;9.85;7.70;;;;;;;;;;5008926;28;20168;-69
2023/04/07 06:49:25;;;;;;;10.25;7.55;;;;;;;;;;5013911;28;20026;-69
2023/04/07 06:51:51;;;;;;;9.77;7.88;;;;;;;;;;5014600;28;20045;-69
2023/04/07 06:54:17;;;;;;;11.05;7.63;;;;;;;;;;5017243;28;20026;-69
2023/04/07 06:56:43;;;;;;;12.07;8.18;;;;;;;;;;5017332;28;20021;-69
2023/04/07 06:59:09;;;;;;;9.77;7.53;;;;;;;;;;5023812;28;20129;-70
2023/04/07 07:01:36;;;;;;;9.85;7.57;;;;;;;;;;5017301;28;20036;-70
2023/04/07 07:04:04;;;;;;;10.43;7.78;;;;;;;;;;5012695;28;20045;-69
2023/04/07 07:06:30;;;;;;;10.07;7.40;;;;;;;;;;5010163;28;20022;-70
2023/04/07 07:08:56;;;;;;;9.75;6.97;;;;;;;;;;5013885;28;20099;-70
2023/04/07 07:11:22;;;;;;;8.25;6.47;;;;;;;;;;5013130;28;20432;-71
2023/04/07 07:13:48;;;;;;;8.13;6.43;;;;;;;;;;5014763;28;20067;-70
2023/04/07 07:16:14;;;;;;;8.35;6.50;;;;;;;;;;5013491;28;20045;-70
2023/04/07 07:18:40;;;;;;;9.45;6.50;;;;;;;;;;5017591;28;20443;-71
2023/04/07 07:21:07;;;;;;;7.93;6.35;;;;;;;;;;5013258;28;20040;-71
2023/04/07 07:23:33;;;;;;;8.18;6.25;;;;;;;;;;5015687;28;20056;-71
2023/04/07 07:25:59;;;;;;;7.43;5.90;;;7.10;99.90;;;;;;5013102;28;20137;-70
2023/04/07 07:28:25;;;;;;;7.13;6.18;;;7.10;99.90;;;;;;5011394;28;20117;-70
2023/04/07 07:30:50;;;;;;;8.52;6.30;;;7.10;99.90;;;;;;5020160;28;20060;-70
2023/04/07 07:33:16;;;;;;;8.73;6.65;;;7.20;99.90;;;;;;5013530;28;20065;-70
2023/04/07 07:35:42;;;;;;;8.30;6.55;;;7.30;99.90;;;;;;5017091;28;20033;-70
2023/04/07 07:38:07;;;;;;;8.15;6.40;;;7.30;99.90;;;;;;5020093;28;20038;-70
2023/04/07 07:40:33;;;;;;;8.40;6.85;;;7.40;99.90;;;;;;5018134;28;20061;-70
2023/04/07 07:42:59;;;;;;;10.65;7.30;;;7.40;99.90;;;;;;5015408;28;20029;-70
2023/04/07 07:45:25;;;;;;;9.68;6.10;;;7.40;99.90;;;;;;5016962;28;20025;-70
2023/04/07 07:47:51;;;;;;;8.98;6.60;;;7.40;99.90;;;;;;5022040;28;20041;-70
2023/04/07 07:50:17;;;;;;;8.70;6.70;;;7.50;99.90;;;;;;5010601;28;20409;-70
2023/04/07 07:52:42;;;;;;;8.82;7.07;;;7.50;99.90;;;;;;5013056;28;20070;-70
2023/04/07 07:55:08;;;;;;;7.70;6.15;;;7.50;99.90;;;;;;5014731;28;20018;-70
2023/04/07 07:57:35;;;;;;;7.30;5.95;;;7.40;99.90;;;;;;5017389;28;20482;-70
2023/04/07 08:00:00;;;;;;;6.85;5.88;;;7.50;99.90;;;;;;5021762;28;20071;-70
2023/04/07 08:02:30;;;;;;;8.02;6.38;;;7.40;99.90;;;;;;5013509;28;20653;-70
2023/04/07 08:04:56;;;;;;;7.60;5.78;;;7.50;99.90;;;;;;5009765;28;20041;-70
2023/04/07 08:07:22;;;;;;;8.15;6.40;;;7.50;99.90;;;;;;5014194;28;20505;-70
2023/04/07 08:09:48;;;;;;;7.93;6.40;;;7.50;99.90;;;;;;4318781;28;10001090;-70
2023/04/07 08:12:14;;;;;;;7.38;5.90;;;7.50;99.90;;;;;;5013281;28;20117;-71
2023/04/07 08:14:40;;;;;;;8.07;6.25;;;7.60;99.90;;;;;;5005217;28;20681;-71
2023/04/07 08:17:05;;;;;;;7.65;6.63;;;7.70;99.90;;;;;;5001719;28;20034;-71
2023/04/07 08:19:31;;;;;;;7.05;6.35;;;7.80;99.90;;;;;;5014796;28;20092;-71
2023/04/07 08:21:57;;;;;;;8.10;6.72;;;7.90;99.90;;;;;;5006735;28;20514;-71
2023/04/07 08:24:22;;;;;;;8.95;6.55;;;7.90;99.90;;;;;;5019584;28;20037;-71
2023/04/07 08:26:48;;;;;;;7.85;6.53;;;8.00;99.90;;;;;;5015033;28;20487;-71
2023/04/07 08:29:14;;;;;;;8.57;7.13;;;8.00;99.90;;;;;;5019291;28;20469;-72
2023/04/07 08:31:40;;;;;;;9.18;7.68;;;8.00;99.90;;;;;;5007744;28;20101;-72
2023/04/07 08:34:05;;;;;;;8.52;7.05;;;8.00;99.90;;;;;;5006339;28;20034;-72
2023/04/07 08:36:31;;;;;;;9.27;7.70;;;8.00;99.90;;;;;;5012717;28;20049;-71
2023/04/07 08:38:59;;;;;;;9.73;7.63;;;8.00;99.90;;;;;;5010819;28;20418;-71
2023/04/07 08:41:37;;;;;;;8.98;7.35;;;8.00;99.90;;;;;;5009574;28;20045;-71
2023/04/07 08:44:06;;;;;;;8.50;6.93;;;7.90;99.90;;;;;;5011726;28;20069;-71
2023/04/07 08:46:33;;;;;;;8.48;7.22;;;7.90;99.90;;;;;;5007294;28;20069;-70
2023/04/07 08:49:00;;;;;;;8.15;6.47;;;7.90;99.90;;;;;;5009582;28;20033;-71
2023/04/07 08:51:33;;;;;;;8.57;6.95;;;7.90;99.90;;;;;;5014704;28;20129;-70
2023/04/07 08:54:11;;;;;;;;;;;8.00;99.90;;;;;;5008807;28;20058;-71
2023/04/07 08:56:41;;;;;;;9.23;6.47;;;8.00;99.90;;;;;;5019512;28;19912;-71
2023/04/07 08:59:09;;;;;;;9.20;6.47;;;8.00;99.90;;;;;;5008722;28;20517;-71
2023/04/07 09:01:35;;;;;;;7.78;6.57;;;8.00;99.90;;;;;;5017462;28;20034;-71
2023/04/07 09:04:06;;;;;;;10.15;7.45;;;8.00;99.90;;;;;;5022722;28;20116;-71
2023/04/07 09:06:32;;;;;;;9.85;7.68;;;8.10;99.90;;;;;;5018991;28;20041;-71
2023/04/07 09:08:59;;;;;;;8.23;6.55;;;8.00;99.90;;;;;;5016097;28;20036;-71
2023/04/07 09:11:26;;;;;;;7.93;6.57;;;8.10;99.90;;;;;;5026615;28;20040;-71
2023/04/07 09:13:52;;;;;;;9.38;6.90;;;8.10;99.90;;;;;;5029217;28;20030;-70
2023/04/07 09:16:18;;;;;;;7.93;6.43;;;8.10;99.90;;;;;;5015204;28;20041;-71
2023/04/07 09:18:43;;;;;;;9.40;7.85;;;8.10;99.90;;;;;;5019086;28;20032;-71
2023/04/07 09:21:10;;;;;;;9.48;7.57;;;8.10;99.90;;;;;;5026644;28;20056;-71
2023/04/07 09:23:40;;;;;;;10.35;8.35;;;8.10;99.90;;;;;;5029211;28;20589;-71
2023/04/07 09:26:27;;;;;;;10.88;8.85;;;;;;;;;;5012512;28;20767;-71
2023/04/07 09:28:58;;;;;;;11.50;8.70;;;8.20;99.90;;;;;;5025252;28;20025;-71
2023/04/07 09:31:50;;;;;;;10.30;8.60;;;8.20;99.90;;;;;;5022586;28;20112;-71
2023/04/07 09:34:32;;;;;;;10.07;7.97;;;8.10;99.90;;;;;;5020597;28;20430;-70
2023/04/07 09:36:58;;;;;;;11.98;8.70;;;8.10;99.90;;;;;;5021434;28;20394;-70
2023/04/07 09:39:24;;;;;;;11.38;9.18;;;;;;;;;;5022321;28;20021;-69
2023/04/07 09:41:51;;;;;;;13.20;10.13;;;8.00;99.90;;;;;;5010875;28;20033;-69
2023/04/07 09:44:18;;;;;;;12.57;10.20;;;8.10;99.90;;;;;;5010077;28;20040;-69
2023/04/07 09:46:57;;;;;;;13.68;11.02;;;8.10;99.90;;;;;;5016060;28;20113;-69
2023/04/07 09:49:24;;;;;;;10.65;8.65;;;8.20;99.90;;;;;;5011633;28;20033;-68
2023/04/07 09:52:03;;;;;;;11.65;9.35;;;8.20;99.90;;;;;;5020635;28;20163;-69
2023/04/07 09:54:37;;;;;;;10.75;8.82;;;8.20;99.90;;;;;;5010228;28;20033;-70
2023/04/07 09:57:04;;;;;;;10.75;8.65;;;8.30;99.90;;;;;;5005213;28;20033;-70
2023/04/07 09:59:31;;;;;;;10.27;8.48;;;8.30;99.90;;;;;;5007752;28;20030;-69
2023/04/07 10:01:57;;;;;;;10.93;8.88;;;8.40;99.90;;;;;;5012723;28;20083;-70
2023/04/07 10:04:27;;;;;;;11.20;8.93;;;8.40;99.90;;;;;;5014114;28;20529;-69
2023/04/07 10:06:54;;;;;;;10.57;8.50;;;8.50;99.90;;;;;;5017164;28;20026;-70
2023/04/07 10:09:22;;;;;;;12.60;8.88;;;;;;;;;;5021700;28;20068;-70
2023/04/07 10:11:49;;;;;;;10.70;8.63;;;;;;;;;;5018840;28;21057;-70
2023/04/07 10:14:16;;;;;;;10.00;7.53;;;;;;;;;;5019406;28;20482;-70
2023/04/07 10:16:43;;;;;;;8.55;7.00;;;;;;;;;;5011836;28;20025;-71
2023/04/07 10:19:09;;;;;;;9.95;8.30;;;;;;;;;;5009250;28;20034;-71
2023/04/07 10:21:37;;;;;;;8.23;7.13;;;;;;;;;;5018228;28;20814;-70
2023/04/07 10:24:21;;;;;;;10.52;8.80;;;;;;;;;;5018537;28;20026;-71
2023/04/07 10:26:51;;;;;;;7.45;6.35;;;;;;;;;;5007331;28;20049;-70
2023/04/07 10:29:18;;;;;;;8.25;6.53;;;;;;;;;;4663453;28;10001141;-71
2023/04/07 10:31:45;;;;;;;6.97;6.20;;;;;;;;;;5010451;28;20144;-71
2023/04/07 10:34:12;;;;;;;7.07;6.18;;;;;;;;;;5011139;28;20036;-71
2023/04/07 10:36:57;;;;;;;7.47;6.68;;;;;;;;;;5014025;28;20498;-71
2023/04/07 10:39:23;;;;;;;8.13;6.80;;;;;;;;;;5019833;28;20386;-71
2023/04/07 10:41:50;;;;;;;9.43;7.20;;;10.00;99.90;;;;;;5018185;28;20029;-71
2023/04/07 10:44:41;;;;;;;11.40;9.00;;;10.10;99.90;;;;;;5013521;28;20471;-71
2023/04/07 10:47:07;;;;;;;8.95;6.85;;;10.30;99.90;;;;;;5016295;28;20098;-72
2023/04/07 10:49:34;;;;;;;16.60;12.23;;;10.40;99.90;;;;;;5014301;28;20046;-71
2023/04/07 10:52:12;;;;;;;17.10;12.60;;;10.40;99.90;;;;;;5007592;28;20120;-71
2023/04/07 10:54:38;;;;;;;7.03;5.93;;;10.40;99.90;;;;;;5016585;28;20032;-71
2023/04/07 10:57:06;;;;;;;6.75;6.00;;;;;;;;;;5012369;28;20026;-71
2023/04/07 10:59:33;;;;;;;7.68;6.88;;;;;;;;;;5016756;28;20101;-71
2023/04/07 11:02:15;;;;;;;9.07;6.57;;;;;;;;;;5007027;28;20029;-71
2023/04/07 11:04:43;;;;;;;7.75;6.38;;;11.50;99.90;;;;;;5007991;28;20360;-72
2023/04/07 11:07:10;;;;;;;7.78;6.53;;;11.60;99.90;;;;;;5004520;28;20036;-71
2023/04/07 11:09:36;;;;;;;7.47;6.50;;;;;;;;;;5010036;28;20025;-71
2023/04/07 11:12:02;;;;;;;8.10;7.00;;;11.80;99.90;;;;;;5009201;28;20179;-71
2023/04/07 11:14:32;;;;;;;9.20;7.82;;;;;;;;;;5006804;28;20026;-71
2023/04/07 11:17:00;;;;;;;8.73;7.22;;;12.30;99.90;;;;;;5009385;28;20036;-71
2023/04/07 11:19:26;;;;;;;8.98;7.45;;;12.50;99.90;;;;;;5011019;28;20032;-72
2023/04/07 11:22:18;;;;;;;7.72;6.82;;;12.80;99.90;;;;;;5014327;28;20033;-71
2023/04/07 11:24:45;;;;;;;8.73;6.35;;;;;;;;;;5008988;28;20033;-71
2023/04/07 11:27:14;;;;;;;7.18;6.47;;;;;;;;;;5017210;28;20029;-71
2023/04/07 11:29:40;;;;;;;7.45;6.65;;;;;;;;;;5013085;28;20033;-71
2023/04/07 11:32:06;;;;;;;8.95;6.70;;;;;;;;;;5009506;28;20076;-71
2023/04/07 11:34:33;;;;;;;7.93;7.05;;;;;;;;;;5008439;28;20030;-70
2023/04/07 11:37:18;;;;;;;7.50;6.70;;;;;;;;;;5011803;28;20441;-71
2023/04/07 11:39:46;;;;;;;8.60;7.07;;;;;;;;;;5008033;28;20030;-71
2023/04/07 11:42:12;;;;;;;7.45;6.65;;;;;;;;;;5011494;28;20464;-70
2023/04/07 11:44:45;;;;;;;7.50;6.70;;;;;;;;;;5018876;28;20068;-71
2023/04/07 11:47:11;;;;;;;10.38;7.80;;;;;;;;;;5004213;28;20022;-71
2023/04/07 11:49:44;;;;;;;8.30;7.43;;;;;;;;;;5011361;28;20100;-71
2023/04/07 11:52:10;;;;;;;7.80;7.00;;;;;;;;;;5003631;28;20391;-71
2023/04/07 11:54:42;;;;;;;8.05;6.95;;;;;;;;;;5008476;28;20030;-71
2023/04/07 11:57:11;;;;;;;8.57;7.50;;;;;;;;;;5012878;28;20483;-71
2023/04/07 11:59:37;;;;;;;8.15;7.35;;;;;;;;;;5007954;28;20494;-72
2023/04/07 12:02:04;;;;;;;7.50;6.57;;;;;;;;;;5013443;28;20026;-71
2023/04/07 12:04:30;;;;;;;7.30;6.50;;;;;;;;;;5016503;28;20088;-71
2023/04/07 12:07:06;;;;;;;9.27;6.80;;;;;;;;;;5010486;28;20026;-71
2023/04/07 12:09:34;;;;;;;7.80;7.00;;;;;;;;;;5016543;28;20116;-71
2023/04/07 12:12:02;;;;;;;7.68;6.88;;;;;;;;;;5022290;28;20033;-71
2023/04/07 12:14:28;;;;;;;10.38;6.90;;;;;;;;;;5014038;28;20108;-71
2023/04/07 12:16:55;;;;;;;7.95;6.40;;;;;;;;;;5010957;28;20033;-71
2023/04/07 12:19:34;;;;;;;7.43;6.35;;;;;;;;;;5021406;28;20131;-71
2023/04/07 12:22:00;;;;;;;8.15;7.28;;;;;;;;;;5020387;28;20036;-71
2023/04/07 12:24:27;;;;;;;7.53;6.70;;;;;;;;;;5018289;28;20017;-71
2023/04/07 12:26:53;;;;;;;8.10;6.82;;;;;;;;;;5017523;28;20041;-71
2023/04/07 12:29:19;;;;;;;8.30;7.18;;;;;;;;;;5008796;28;20033;-70
2023/04/07 12:31:45;;;;;;;7.97;7.18;;;;;;;;;;5019145;28;20033;-70
2023/04/07 12:34:11;;;;;;;8.02;7.20;;;;;;;;;;5021038;28;20033;-71
2023/04/07 12:36:37;;;;;;;10.38;7.20;;;;;;;;;;5011311;28;20022;-71
2023/04/07 12:39:04;;;;;;;8.85;6.93;;;;;;;;;;5016749;28;20041;-71
2023/04/07 12:41:30;;;;;;;8.45;6.88;;;;;;;;;;5022271;28;20140;-71
2023/04/07 12:43:56;;;;;;;7.55;6.75;;;;;;;;;;5008414;28;20029;-72
2023/04/07 12:46:22;;;;;;;8.85;7.40;;;;;;;;;;5016738;28;20106;-71
2023/04/07 12:48:48;;;;;;;8.70;7.38;;;;;;;;;;5013598;28;20044;-71
2023/04/07 12:51:15;;;;;;;9.88;7.72;;;;;;;;;;5007345;28;20033;-71
2023/04/07 12:53:41;;;;;;;8.48;7.47;;;;;;;;;;5008741;28;20057;-71
2023/04/07 12:56:07;;;;;;;10.52;9.30;;;;;;;;;;5026048;28;20041;-71
2023/04/07 12:58:33;;;;;;;9.15;7.60;;;;;;;;;;5022439;28;20091;-70
2023/04/07 13:00:59;;;;;;;8.93;7.75;;;14.70;99.90;;;;;;5016785;28;20084;-71
2023/04/07 13:03:25;;;;;;;8.75;7.82;;;14.90;99.90;;;;;;5018805;28;20265;-71
2023/04/07 13:05:53;;;;;;;9.55;8.50;;;14.70;99.90;;;;;;5012345;28;20211;-70
2023/04/07 13:08:18;;;;;;;10.70;8.68;;;14.60;99.90;;;;;;5016395;28;20091;-71
2023/04/07 13:10:44;;;;;;;9.93;8.60;;;14.50;99.90;;;;;;5015878;28;20030;-70
2023/04/07 13:13:10;;;;;;;10.10;8.55;;;14.50;99.90;;;;;;5006838;28;20049;-71
2023/04/07 13:15:35;;;;;;;10.48;9.10;;;14.40;99.90;;;;;;5009777;28;20030;-71
2023/04/07 13:18:01;;;;;;;10.35;8.95;;;14.20;99.90;;;;;;5006692;28;20026;-71
2023/04/07 13:20:27;;;;;;;11.23;8.25;;;13.90;99.90;;;;;;5005968;28;20026;-71
2023/04/07 13:22:53;;;;;;;10.25;8.68;;;13.80;99.90;;;;;;5012281;28;20338;-71
2023/04/07 13:25:18;;;;;;;11.35;9.68;;;13.70;99.90;;;;;;5015797;28;20528;-71
2023/04/07 13:27:45;;;;;;;9.48;8.02;;;;;;;;;;5005885;28;20342;-71
2023/04/07 13:30:11;;;;;;;12.23;8.85;;;;;;;;;;5007726;28;20022;-70
2023/04/07 13:32:37;;;;;;;12.13;9.05;;;13.30;99.90;;;;;;5008931;28;20030;-71
2023/04/07 13:35:03;;;;;;;10.95;8.77;;;13.10;99.90;;;;;;5009542;28;20618;-70
2023/04/07 13:37:28;;;;;;;10.50;8.32;;;12.90;99.90;;;;;;5011988;28;20033;-71
2023/04/07 13:39:54;;;;;;;10.15;9.05;;;12.70;99.90;;;;;;5010757;28;20334;-71
2023/04/07 13:42:20;;;;;;;10.55;9.40;;;12.50;99.90;;;;;;5011408;28;20029;-70
2023/04/07 13:44:47;;;;;;;11.38;8.75;;;;;;;;;;5008684;28;20852;-70
2023/04/07 13:47:18;;;;;;;10.48;8.70;;;;;;;;;;5014305;28;20025;-70
2023/04/07 13:49:44;;;;;;;13.55;9.48;;;;;;;;;;5009794;28;20514;-70
2023/04/07 13:52:10;;;;;;;11.00;9.52;;;;;;;;;;5012680;28;20643;-71
2023/04/07 13:54:37;;;;;;;11.00;9.63;;;;;;;;;;5010823;28;20557;-71
2023/04/07 13:57:03;;;;;;;13.68;11.18;;;;;;;;;;5011773;28;20475;-70
2023/04/07 13:59:29;;;;;;;12.27;9.48;;;;;;;;;;5011385;28;20292;-70